sensor_id;sensor_type;location;lat;lon;timestamp;temperature;humidity
14875;DHT22;7529;48.170;17.138;2022-09-09T00:02:39;16.40;81.20
14875;DHT22;7529;48.170;17.138;2022-09-09T00:11:54;16.40;82.40
14875;DHT22;7529;48.170;17.138;2022-09-09T00:16:28;16.30;81.60
14875;DHT22;7529;48.170;17.138;2022-09-09T00:20:58;16.20;81.90
14875;DHT22;7529;48.170;17.138;2022-09-09T00:25:46;16.20;82.10
14875;DHT22;7529;48.170;17.138;2022-09-09T00:34:33;16.20;82.00
14875;DHT22;7529;48.170;17.138;2022-09-09T00:38:53;16.10;82.30
14875;DHT22;7529;48.170;17.138;2022-09-09T00:43:27;15.80;83.60
14875;DHT22;7529;48.170;17.138;2022-09-09T00:47:50;15.80;84.30
14875;DHT22;7529;48.170;17.138;2022-09-09T00:57:06;16.10;84.80
14875;DHT22;7529;48.170;17.138;2022-09-09T01:01:24;16.10;84.90
14875;DHT22;7529;48.170;17.138;2022-09-09T01:05:51;16.10;84.50
14875;DHT22;7529;48.170;17.138;2022-09-09T01:10:29;16.10;85.30
14875;DHT22;7529;48.170;17.138;2022-09-09T01:14:49;16.00;85.40
14875;DHT22;7529;48.170;17.138;2022-09-09T01:19:07;15.90;85.40
14875;DHT22;7529;48.170;17.138;2022-09-09T01:28:11;15.90;86.20
14875;DHT22;7529;48.170;17.138;2022-09-09T01:32:41;16.00;85.80
14875;DHT22;7529;48.170;17.138;2022-09-09T01:37:10;16.00;86.40
14875;DHT22;7529;48.170;17.138;2022-09-09T01:41:24;15.90;86.70
14875;DHT22;7529;48.170;17.138;2022-09-09T01:45:51;15.80;86.20
14875;DHT22;7529;48.170;17.138;2022-09-09T01:50:08;15.80;86.50
14875;DHT22;7529;48.170;17.138;2022-09-09T01:54:26;15.80;86.90
14875;DHT22;7529;48.170;17.138;2022-09-09T01:59:05;15.70;87.20
14875;DHT22;7529;48.170;17.138;2022-09-09T02:03:27;15.60;88.40
14875;DHT22;7529;48.170;17.138;2022-09-09T02:07:57;15.50;88.10
14875;DHT22;7529;48.170;17.138;2022-09-09T02:12:36;15.50;88.30
14875;DHT22;7529;48.170;17.138;2022-09-09T02:16:58;15.50;88.20
14875;DHT22;7529;48.170;17.138;2022-09-09T02:21:29;15.40;88.30
14875;DHT22;7529;48.170;17.138;2022-09-09T02:25:43;15.40;88.90
14875;DHT22;7529;48.170;17.138;2022-09-09T02:30:04;15.30;88.80
14875;DHT22;7529;48.170;17.138;2022-09-09T02:34:24;15.30;89.20
14875;DHT22;7529;48.170;17.138;2022-09-09T02:38:45;15.30;89.20
14875;DHT22;7529;48.170;17.138;2022-09-09T02:43:02;15.30;89.80
14875;DHT22;7529;48.170;17.138;2022-09-09T02:47:19;15.30;90.00
14875;DHT22;7529;48.170;17.138;2022-09-09T02:52:02;15.30;89.80
14875;DHT22;7529;48.170;17.138;2022-09-09T02:56:21;15.40;90.50
14875;DHT22;7529;48.170;17.138;2022-09-09T03:00:35;15.50;90.10
14875;DHT22;7529;48.170;17.138;2022-09-09T03:04:47;15.40;90.20
14875;DHT22;7529;48.170;17.138;2022-09-09T03:09:03;15.50;90.30
14875;DHT22;7529;48.170;17.138;2022-09-09T03:13:15;15.50;90.40
14875;DHT22;7529;48.170;17.138;2022-09-09T03:17:27;15.50;90.40
14875;DHT22;7529;48.170;17.138;2022-09-09T03:21:40;15.70;90.50
14875;DHT22;7529;48.170;17.138;2022-09-09T03:25:52;15.90;90.40
14875;DHT22;7529;48.170;17.138;2022-09-09T03:30:13;16.00;90.30
14875;DHT22;7529;48.170;17.138;2022-09-09T03:34:25;16.00;90.30
14875;DHT22;7529;48.170;17.138;2022-09-09T03:38:37;15.90;90.30
14875;DHT22;7529;48.170;17.138;2022-09-09T03:42:49;15.90;90.40
14875;DHT22;7529;48.170;17.138;2022-09-09T03:47:02;15.90;90.60
14875;DHT22;7529;48.170;17.138;2022-09-09T03:51:14;15.90;90.60
14875;DHT22;7529;48.170;17.138;2022-09-09T03:55:27;15.90;90.70
14875;DHT22;7529;48.170;17.138;2022-09-09T03:59:38;16.20;90.50
14875;DHT22;7529;48.170;17.138;2022-09-09T04:03:50;16.20;90.40
14875;DHT22;7529;48.170;17.138;2022-09-09T04:08:02;16.20;90.40
14875;DHT22;7529;48.170;17.138;2022-09-09T04:12:14;16.30;90.30
14875;DHT22;7529;48.170;17.138;2022-09-09T04:16:29;16.40;90.30
14875;DHT22;7529;48.170;17.138;2022-09-09T04:20:40;16.60;90.30
14875;DHT22;7529;48.170;17.138;2022-09-09T04:24:52;16.80;90.10
14875;DHT22;7529;48.170;17.138;2022-09-09T04:29:05;16.80;89.80
14875;DHT22;7529;48.170;17.138;2022-09-09T04:33:18;16.80;89.70
14875;DHT22;7529;48.170;17.138;2022-09-09T04:37:30;16.80;89.70
14875;DHT22;7529;48.170;17.138;2022-09-09T04:41:41;16.90;89.40
14875;DHT22;7529;48.170;17.138;2022-09-09T04:45:55;17.00;89.40
14875;DHT22;7529;48.170;17.138;2022-09-09T04:50:09;17.00;89.20
14875;DHT22;7529;48.170;17.138;2022-09-09T04:54:21;17.00;89.30
14875;DHT22;7529;48.170;17.138;2022-09-09T04:58:33;16.90;89.40
14875;DHT22;7529;48.170;17.138;2022-09-09T05:02:44;16.90;89.70
14875;DHT22;7529;48.170;17.138;2022-09-09T05:06:57;16.90;89.40
14875;DHT22;7529;48.170;17.138;2022-09-09T05:11:16;17.10;89.20
14875;DHT22;7529;48.170;17.138;2022-09-09T05:15:28;17.20;88.70
14875;DHT22;7529;48.170;17.138;2022-09-09T05:19:41;17.20;88.40
14875;DHT22;7529;48.170;17.138;2022-09-09T05:23:53;17.30;88.60
14875;DHT22;7529;48.170;17.138;2022-09-09T05:28:04;17.40;88.00
14875;DHT22;7529;48.170;17.138;2022-09-09T05:32:18;17.50;88.10
14875;DHT22;7529;48.170;17.138;2022-09-09T05:36:33;17.60;87.70
14875;DHT22;7529;48.170;17.138;2022-09-09T05:40:48;17.80;87.30
14875;DHT22;7529;48.170;17.138;2022-09-09T05:45:00;17.90;87.00
14875;DHT22;7529;48.170;17.138;2022-09-09T05:49:12;18.00;86.60
14875;DHT22;7529;48.170;17.138;2022-09-09T05:53:26;18.20;86.30
14875;DHT22;7529;48.170;17.138;2022-09-09T05:57:38;18.30;85.80
14875;DHT22;7529;48.170;17.138;2022-09-09T06:01:50;18.40;85.40
14875;DHT22;7529;48.170;17.138;2022-09-09T06:06:14;18.50;85.20
14875;DHT22;7529;48.170;17.138;2022-09-09T06:10:38;18.70;85.00
14875;DHT22;7529;48.170;17.138;2022-09-09T06:14:50;18.90;84.50
14875;DHT22;7529;48.170;17.138;2022-09-09T06:19:02;19.00;84.00
14875;DHT22;7529;48.170;17.138;2022-09-09T06:23:15;19.10;83.70
14875;DHT22;7529;48.170;17.138;2022-09-09T06:27:28;19.10;83.50
14875;DHT22;7529;48.170;17.138;2022-09-09T06:31:40;19.20;83.40
14875;DHT22;7529;48.170;17.138;2022-09-09T06:36:02;19.30;83.30
14875;DHT22;7529;48.170;17.138;2022-09-09T06:40:15;19.30;83.10
14875;DHT22;7529;48.170;17.138;2022-09-09T06:44:27;19.30;83.10
14875;DHT22;7529;48.170;17.138;2022-09-09T06:48:40;19.40;82.90
14875;DHT22;7529;48.170;17.138;2022-09-09T06:52:53;19.50;82.60
14875;DHT22;7529;48.170;17.138;2022-09-09T06:57:05;19.60;82.20
14875;DHT22;7529;48.170;17.138;2022-09-09T07:01:21;19.70;81.80
14875;DHT22;7529;48.170;17.138;2022-09-09T07:05:35;19.90;81.20
14875;DHT22;7529;48.170;17.138;2022-09-09T07:09:46;20.20;80.40
14875;DHT22;7529;48.170;17.138;2022-09-09T07:14:00;20.90;78.70
14875;DHT22;7529;48.170;17.138;2022-09-09T07:18:12;21.80;76.40
14875;DHT22;7529;48.170;17.138;2022-09-09T07:22:23;22.70;74.10
14875;DHT22;7529;48.170;17.138;2022-09-09T07:26:38;23.10;71.70
14875;DHT22;7529;48.170;17.138;2022-09-09T07:35:06;23.10;70.10
14875;DHT22;7529;48.170;17.138;2022-09-09T07:39:18;23.00;69.30
14875;DHT22;7529;48.170;17.138;2022-09-09T07:43:34;22.80;68.10
14875;DHT22;7529;48.170;17.138;2022-09-09T07:47:45;22.80;67.40
14875;DHT22;7529;48.170;17.138;2022-09-09T07:51:57;22.70;66.60
14875;DHT22;7529;48.170;17.138;2022-09-09T07:56:12;23.40;66.20
14875;DHT22;7529;48.170;17.138;2022-09-09T08:17:21;28.20;62.40
14875;DHT22;7529;48.170;17.138;2022-09-09T08:21:35;42.20;46.90
14875;DHT22;7529;48.170;17.138;2022-09-09T08:25:47;43.50;44.70
14875;DHT22;7529;48.170;17.138;2022-09-09T08:55:39;44.80;42.10
14875;DHT22;7529;48.170;17.138;2022-09-09T09:17:59;44.90;34.20
14875;DHT22;7529;48.170;17.138;2022-09-09T09:26:55;49.30;28.40
14875;DHT22;7529;48.170;17.138;2022-09-09T09:56:46;48.80;27.70
14875;DHT22;7529;48.170;17.138;2022-09-09T10:05:16;50.30;25.70
14875;DHT22;7529;48.170;17.138;2022-09-09T10:09:35;48.90;25.50
14875;DHT22;7529;48.170;17.138;2022-09-09T10:27:47;37.50;28.40
14875;DHT22;7529;48.170;17.138;2022-09-09T10:40:43;37.70;28.40
14875;DHT22;7529;48.170;17.138;2022-09-09T10:45:28;40.90;27.50
14875;DHT22;7529;48.170;17.138;2022-09-09T10:50:18;39.20;27.40
14875;DHT22;7529;48.170;17.138;2022-09-09T10:59:13;40.80;27.30
14875;DHT22;7529;48.170;17.138;2022-09-09T11:03:33;44.50;25.90
14875;DHT22;7529;48.170;17.138;2022-09-09T11:08:14;41.90;26.80
14875;DHT22;7529;48.170;17.138;2022-09-09T11:12:39;39.20;27.00
14875;DHT22;7529;48.170;17.138;2022-09-09T11:17:00;36.70;27.40
14875;DHT22;7529;48.170;17.138;2022-09-09T11:21:28;36.60;28.00
14875;DHT22;7529;48.170;17.138;2022-09-09T11:25:48;41.70;26.30
14875;DHT22;7529;48.170;17.138;2022-09-09T11:44:29;44.40;25.10
14875;DHT22;7529;48.170;17.138;2022-09-09T11:48:43;44.10;25.20
14875;DHT22;7529;48.170;17.138;2022-09-09T11:57:37;41.30;25.40
14875;DHT22;7529;48.170;17.138;2022-09-09T12:01:58;40.20;25.60
14875;DHT22;7529;48.170;17.138;2022-09-09T12:11:02;40.70;25.20
14875;DHT22;7529;48.170;17.138;2022-09-09T12:15:24;40.70;25.20
14875;DHT22;7529;48.170;17.138;2022-09-09T12:19:42;42.20;24.50
14875;DHT22;7529;48.170;17.138;2022-09-09T12:24:02;44.70;24.10
14875;DHT22;7529;48.170;17.138;2022-09-09T12:28:56;46.30;23.70
14875;DHT22;7529;48.170;17.138;2022-09-09T12:33:40;48.30;22.70
14875;DHT22;7529;48.170;17.138;2022-09-09T12:37:56;49.50;23.40
14875;DHT22;7529;48.170;17.138;2022-09-09T12:42:17;47.50;22.90
14875;DHT22;7529;48.170;17.138;2022-09-09T12:46:41;46.10;23.00
14875;DHT22;7529;48.170;17.138;2022-09-09T12:50:55;43.20;23.00
14875;DHT22;7529;48.170;17.138;2022-09-09T12:55:07;42.00;23.50
14875;DHT22;7529;48.170;17.138;2022-09-09T12:59:40;42.10;23.50
14875;DHT22;7529;48.170;17.138;2022-09-09T13:03:53;40.40;23.50
14875;DHT22;7529;48.170;17.138;2022-09-09T13:08:08;40.00;24.00
14875;DHT22;7529;48.170;17.138;2022-09-09T13:12:23;41.50;23.70
14875;DHT22;7529;48.170;17.138;2022-09-09T13:16:36;42.50;23.40
14875;DHT22;7529;48.170;17.138;2022-09-09T13:20:50;40.20;23.80
14875;DHT22;7529;48.170;17.138;2022-09-09T13:29:22;40.50;24.00
14875;DHT22;7529;48.170;17.138;2022-09-09T13:33:36;39.30;24.20
14875;DHT22;7529;48.170;17.138;2022-09-09T13:37:48;38.50;24.40
14875;DHT22;7529;48.170;17.138;2022-09-09T13:42:00;38.10;24.10
14875;DHT22;7529;48.170;17.138;2022-09-09T13:51:03;36.40;24.70
14875;DHT22;7529;48.170;17.138;2022-09-09T13:55:16;33.90;25.50
14875;DHT22;7529;48.170;17.138;2022-09-09T13:59:27;33.20;25.70
14875;DHT22;7529;48.170;17.138;2022-09-09T14:03:40;32.20;25.70
14875;DHT22;7529;48.170;17.138;2022-09-09T14:07:52;31.60;26.30
14875;DHT22;7529;48.170;17.138;2022-09-09T14:12:03;31.40;26.60
14875;DHT22;7529;48.170;17.138;2022-09-09T14:16:20;31.40;26.80
14875;DHT22;7529;48.170;17.138;2022-09-09T14:20:32;31.40;27.00
14875;DHT22;7529;48.170;17.138;2022-09-09T14:24:44;31.30;27.10
14875;DHT22;7529;48.170;17.138;2022-09-09T14:28:55;31.30;27.30
14875;DHT22;7529;48.170;17.138;2022-09-09T14:33:13;31.10;27.40
14875;DHT22;7529;48.170;17.138;2022-09-09T14:37:27;30.40;27.90
14875;DHT22;7529;48.170;17.138;2022-09-09T14:41:39;30.20;28.10
14875;DHT22;7529;48.170;17.138;2022-09-09T14:45:51;29.90;28.20
14875;DHT22;7529;48.170;17.138;2022-09-09T14:50:02;29.70;28.40
14875;DHT22;7529;48.170;17.138;2022-09-09T14:54:15;29.30;28.70
14875;DHT22;7529;48.170;17.138;2022-09-09T14:58:30;29.10;29.00
14875;DHT22;7529;48.170;17.138;2022-09-09T15:02:42;28.60;29.50
14875;DHT22;7529;48.170;17.138;2022-09-09T15:06:53;28.00;29.80
14875;DHT22;7529;48.170;17.138;2022-09-09T15:11:06;27.40;30.10
14875;DHT22;7529;48.170;17.138;2022-09-09T15:15:21;27.10;30.40
14875;DHT22;7529;48.170;17.138;2022-09-09T15:19:32;26.80;30.70
14875;DHT22;7529;48.170;17.138;2022-09-09T15:23:45;26.70;31.00
14875;DHT22;7529;48.170;17.138;2022-09-09T15:27:58;26.50;31.30
14875;DHT22;7529;48.170;17.138;2022-09-09T15:32:10;26.40;31.40
14875;DHT22;7529;48.170;17.138;2022-09-09T15:36:23;26.30;31.70
14875;DHT22;7529;48.170;17.138;2022-09-09T15:40:36;26.20;31.90
14875;DHT22;7529;48.170;17.138;2022-09-09T15:44:47;26.20;32.30
14875;DHT22;7529;48.170;17.138;2022-09-09T15:49:11;26.20;32.50
14875;DHT22;7529;48.170;17.138;2022-09-09T15:53:23;26.10;33.20
14875;DHT22;7529;48.170;17.138;2022-09-09T15:57:35;26.20;33.00
14875;DHT22;7529;48.170;17.138;2022-09-09T16:01:47;26.30;33.40
14875;DHT22;7529;48.170;17.138;2022-09-09T16:06:03;26.30;33.60
14875;DHT22;7529;48.170;17.138;2022-09-09T16:10:15;26.20;33.70
14875;DHT22;7529;48.170;17.138;2022-09-09T16:14:27;25.80;34.00
14875;DHT22;7529;48.170;17.138;2022-09-09T16:18:42;25.40;34.50
14875;DHT22;7529;48.170;17.138;2022-09-09T16:22:56;25.10;34.90
14875;DHT22;7529;48.170;17.138;2022-09-09T16:27:08;24.80;35.20
14875;DHT22;7529;48.170;17.138;2022-09-09T16:31:22;24.60;35.40
14875;DHT22;7529;48.170;17.138;2022-09-09T16:35:36;24.40;35.80
14875;DHT22;7529;48.170;17.138;2022-09-09T16:39:49;24.30;36.10
14875;DHT22;7529;48.170;17.138;2022-09-09T16:44:04;24.10;36.30
14875;DHT22;7529;48.170;17.138;2022-09-09T16:48:18;24.00;36.60
14875;DHT22;7529;48.170;17.138;2022-09-09T16:52:29;23.80;36.90
14875;DHT22;7529;48.170;17.138;2022-09-09T16:56:43;23.80;37.10
14875;DHT22;7529;48.170;17.138;2022-09-09T17:00:58;23.60;37.30
14875;DHT22;7529;48.170;17.138;2022-09-09T17:05:11;23.40;37.50
14875;DHT22;7529;48.170;17.138;2022-09-09T17:09:24;23.40;37.70
14875;DHT22;7529;48.170;17.138;2022-09-09T17:13:43;23.30;38.20
14875;DHT22;7529;48.170;17.138;2022-09-09T17:17:58;23.20;38.30
14875;DHT22;7529;48.170;17.138;2022-09-09T17:22:10;23.20;38.40
14875;DHT22;7529;48.170;17.138;2022-09-09T17:26:29;23.00;38.70
14875;DHT22;7529;48.170;17.138;2022-09-09T17:30:41;22.90;38.90
14875;DHT22;7529;48.170;17.138;2022-09-09T17:34:52;22.90;39.10
14875;DHT22;7529;48.170;17.138;2022-09-09T17:39:05;22.80;39.40
14875;DHT22;7529;48.170;17.138;2022-09-09T17:43:17;22.70;39.70
14875;DHT22;7529;48.170;17.138;2022-09-09T17:47:30;22.70;39.90
14875;DHT22;7529;48.170;17.138;2022-09-09T17:51:43;22.60;40.20
14875;DHT22;7529;48.170;17.138;2022-09-09T17:55:55;22.50;40.50
14875;DHT22;7529;48.170;17.138;2022-09-09T18:00:13;22.50;40.60
14875;DHT22;7529;48.170;17.138;2022-09-09T18:04:25;22.50;41.40
14875;DHT22;7529;48.170;17.138;2022-09-09T18:08:36;22.40;41.00
14875;DHT22;7529;48.170;17.138;2022-09-09T18:12:48;22.30;41.10
14875;DHT22;7529;48.170;17.138;2022-09-09T18:17:01;22.20;41.30
14875;DHT22;7529;48.170;17.138;2022-09-09T18:21:14;22.20;41.60
14875;DHT22;7529;48.170;17.138;2022-09-09T18:25:27;22.10;41.70
14875;DHT22;7529;48.170;17.138;2022-09-09T18:29:39;22.00;41.90
14875;DHT22;7529;48.170;17.138;2022-09-09T18:33:55;22.00;42.70
14875;DHT22;7529;48.170;17.138;2022-09-09T18:38:09;21.90;42.30
14875;DHT22;7529;48.170;17.138;2022-09-09T18:42:21;21.90;42.40
14875;DHT22;7529;48.170;17.138;2022-09-09T18:46:34;21.90;42.50
14875;DHT22;7529;48.170;17.138;2022-09-09T18:50:46;21.90;42.70
14875;DHT22;7529;48.170;17.138;2022-09-09T18:54:58;21.80;42.80
14875;DHT22;7529;48.170;17.138;2022-09-09T18:59:11;21.70;42.90
14875;DHT22;7529;48.170;17.138;2022-09-09T19:03:26;21.70;43.30
14875;DHT22;7529;48.170;17.138;2022-09-09T19:07:38;21.50;43.80
14875;DHT22;7529;48.170;17.138;2022-09-09T19:11:51;21.40;44.30
14875;DHT22;7529;48.170;17.138;2022-09-09T19:16:13;21.20;44.80
14875;DHT22;7529;48.170;17.138;2022-09-09T19:20:25;21.00;46.10
14875;DHT22;7529;48.170;17.138;2022-09-09T19:24:37;20.90;45.90
14875;DHT22;7529;48.170;17.138;2022-09-09T19:28:50;20.80;46.40
14875;DHT22;7529;48.170;17.138;2022-09-09T19:33:02;20.60;46.50
14875;DHT22;7529;48.170;17.138;2022-09-09T19:37:14;20.50;47.20
14875;DHT22;7529;48.170;17.138;2022-09-09T19:41:26;20.40;47.30
14875;DHT22;7529;48.170;17.138;2022-09-09T19:45:39;20.30;48.50
14875;DHT22;7529;48.170;17.138;2022-09-09T19:49:50;20.30;48.40
14875;DHT22;7529;48.170;17.138;2022-09-09T19:54:08;20.20;48.80
14875;DHT22;7529;48.170;17.138;2022-09-09T19:58:20;20.10;49.20
14875;DHT22;7529;48.170;17.138;2022-09-09T20:02:32;20.10;49.00
14875;DHT22;7529;48.170;17.138;2022-09-09T20:06:44;20.20;49.50
14875;DHT22;7529;48.170;17.138;2022-09-09T20:10:56;20.00;49.90
14875;DHT22;7529;48.170;17.138;2022-09-09T20:15:08;19.90;50.70
14875;DHT22;7529;48.170;17.138;2022-09-09T20:19:19;19.80;51.60
14875;DHT22;7529;48.170;17.138;2022-09-09T20:23:31;19.80;52.10
14875;DHT22;7529;48.170;17.138;2022-09-09T20:27:44;19.70;53.20
14875;DHT22;7529;48.170;17.138;2022-09-09T20:31:55;19.70;53.30
14875;DHT22;7529;48.170;17.138;2022-09-09T20:36:19;19.60;55.30
14875;DHT22;7529;48.170;17.138;2022-09-09T20:40:39;19.60;56.50
14875;DHT22;7529;48.170;17.138;2022-09-09T20:44:52;19.60;56.60
14875;DHT22;7529;48.170;17.138;2022-09-09T20:49:04;19.60;57.10
14875;DHT22;7529;48.170;17.138;2022-09-09T20:53:18;19.60;57.10
14875;DHT22;7529;48.170;17.138;2022-09-09T20:57:29;19.50;58.00
14875;DHT22;7529;48.170;17.138;2022-09-09T21:01:41;19.50;57.70
14875;DHT22;7529;48.170;17.138;2022-09-09T21:05:54;19.40;59.10
14875;DHT22;7529;48.170;17.138;2022-09-09T21:10:07;19.30;59.80
14875;DHT22;7529;48.170;17.138;2022-09-09T21:14:19;19.30;60.70
14875;DHT22;7529;48.170;17.138;2022-09-09T21:18:31;19.20;60.30
14875;DHT22;7529;48.170;17.138;2022-09-09T21:22:42;19.10;60.60
14875;DHT22;7529;48.170;17.138;2022-09-09T21:26:54;19.10;61.20
14875;DHT22;7529;48.170;17.138;2022-09-09T21:31:06;19.10;61.70
14875;DHT22;7529;48.170;17.138;2022-09-09T21:35:19;19.10;62.20
14875;DHT22;7529;48.170;17.138;2022-09-09T21:39:31;19.00;62.50
14875;DHT22;7529;48.170;17.138;2022-09-09T21:43:44;19.00;63.10
14875;DHT22;7529;48.170;17.138;2022-09-09T21:47:56;18.90;65.10
14875;DHT22;7529;48.170;17.138;2022-09-09T21:52:08;18.90;65.40
14875;DHT22;7529;48.170;17.138;2022-09-09T21:56:19;18.80;67.80
14875;DHT22;7529;48.170;17.138;2022-09-09T22:00:31;18.70;68.10
14875;DHT22;7529;48.170;17.138;2022-09-09T22:04:42;18.70;67.80
14875;DHT22;7529;48.170;17.138;2022-09-09T22:08:54;18.60;69.00
14875;DHT22;7529;48.170;17.138;2022-09-09T22:13:07;18.60;70.70
14875;DHT22;7529;48.170;17.138;2022-09-09T22:17:19;18.60;71.80
14875;DHT22;7529;48.170;17.138;2022-09-09T22:21:31;18.50;74.40
14875;DHT22;7529;48.170;17.138;2022-09-09T22:25:43;18.40;76.80
14875;DHT22;7529;48.170;17.138;2022-09-09T22:29:54;18.30;77.90
14875;DHT22;7529;48.170;17.138;2022-09-09T22:34:06;18.20;78.70
14875;DHT22;7529;48.170;17.138;2022-09-09T22:38:17;18.10;80.50
14875;DHT22;7529;48.170;17.138;2022-09-09T22:42:29;18.10;80.50
14875;DHT22;7529;48.170;17.138;2022-09-09T22:46:41;18.00;80.70
14875;DHT22;7529;48.170;17.138;2022-09-09T22:50:52;17.90;81.30
14875;DHT22;7529;48.170;17.138;2022-09-09T22:55:04;17.90;81.70
14875;DHT22;7529;48.170;17.138;2022-09-09T22:59:17;17.90;84.00
14875;DHT22;7529;48.170;17.138;2022-09-09T23:03:30;17.80;85.30
14875;DHT22;7529;48.170;17.138;2022-09-09T23:07:43;17.80;84.40
14875;DHT22;7529;48.170;17.138;2022-09-09T23:11:54;17.80;84.80
14875;DHT22;7529;48.170;17.138;2022-09-09T23:16:16;17.70;86.40
14875;DHT22;7529;48.170;17.138;2022-09-09T23:20:28;17.70;87.20
14875;DHT22;7529;48.170;17.138;2022-09-09T23:24:40;17.70;86.90
14875;DHT22;7529;48.170;17.138;2022-09-09T23:28:51;17.70;87.20
14875;DHT22;7529;48.170;17.138;2022-09-09T23:33:05;17.70;88.30
14875;DHT22;7529;48.170;17.138;2022-09-09T23:37:17;17.70;88.80
14875;DHT22;7529;48.170;17.138;2022-09-09T23:41:30;17.60;89.00
14875;DHT22;7529;48.170;17.138;2022-09-09T23:45:43;17.50;90.30
14875;DHT22;7529;48.170;17.138;2022-09-09T23:49:55;17.50;90.70
14875;DHT22;7529;48.170;17.138;2022-09-09T23:54:06;17.50;91.10
14875;DHT22;7529;48.170;17.138;2022-09-09T23:58:20;17.50;91.10
